Bayside, New York
Current Conditions -  °F | °C
As of 12:51 PM on Thursday 30 Oct 2014 (Local Time) from KLGA Reporting Station
Scattered Clouds Scattered Clouds  
Wind Chill: 57°   Ceiling: Unl
Heat Index: 57°   Visibility: 10mi
Dew Point: 36°   Wind: 14mph
Humidity: 45%   Direction: 330°NNW
Pressure: 29.98"   Gusts: NA
Location:  40.77°N, 73.78°W
Report Text: KLGA 301651Z 33012KT 10SM FEW045 SCT075 14/02 A2998 RMK AO2 SLP153 T01390022
Loading
Personal Weather Stations






























Interactive Weather Map
Tropical Storm Tracking
New forecast layout! Learn more

10-Day Weather Forecast

Advertisements
Track Severe Weather on mobile